Time;durP1;ratioP1;P1;durP2;ratioP2;P2;SDS_P1;SDS_P2;PMS_P1;PMS_P2;Temp;Humidity;BMP_temperature;BMP_pressure;BME280_temperature;BME280_humidity;BME280_pressure;Samples;Min_cycle;Max_cycle;Signal;HPM_P1;HPM_P2
2021/01/30 00:00:42;;;;;;;9.07;4.90;;;-0.50;98.30;;;;;;7942943;29;20050;-68
2021/01/30 00:04:47;;;;;;;7.85;4.30;;;-0.50;98.20;;;;;;7968651;29;20546;-67
2021/01/30 00:08:48;;;;;;;11.10;4.50;;;-0.40;98.20;;;;;;7943313;29;20062;-69
2021/01/30 00:12:50;;;;;;;7.60;4.80;;;-0.50;98.20;;;;;;7943921;29;20124;-67
2021/01/30 00:16:52;;;;;;;6.60;4.05;;;-0.50;98.20;;;;;;7946568;29;20046;-68
2021/01/30 00:20:55;;;;;;;7.82;4.60;;;-0.50;98.20;;;;;;7955818;29;20509;-67
2021/01/30 00:24:56;;;;;;;7.20;4.63;;;-0.60;98.20;;;;;;7930515;29;20383;-67
2021/01/30 00:28:57;;;;;;;7.93;4.60;;;-0.60;98.20;;;;;;7947720;29;20050;-68
2021/01/30 00:33:01;;;;;;;8.52;4.38;;;-0.10;98.30;;;;;;7944325;29;20042;-68
2021/01/30 00:37:17;;;;;;;7.90;4.63;;;-0.70;98.20;;;;;;7946808;29;20142;-69
2021/01/30 00:41:18;;;;;;;7.20;4.43;;;-0.60;98.30;;;;;;7937973;29;20062;-68
2021/01/30 00:45:22;;;;;;;9.05;4.85;;;-0.60;98.30;;;;;;7942160;29;20152;-68
2021/01/30 00:49:25;;;;;;;9.80;5.30;;;-0.20;98.40;;;;;;7936901;29;20062;-67
2021/01/30 00:53:28;;;;;;;8.63;5.00;;;-0.50;98.10;;;;;;7944383;29;20097;-68
2021/01/30 00:57:30;;;;;;;9.75;5.15;;;-0.50;98.30;;;;;;7949065;29;20055;-66
2021/01/30 01:01:39;;;;;;;8.88;5.00;;;0.70;98.60;;;;;;7965408;29;20055;-68
2021/01/30 01:05:47;;;;;;;11.25;5.22;;;-0.40;98.20;;;;;;7937339;29;20556;-67
2021/01/30 01:09:49;;;;;;;7.82;5.00;;;-0.40;97.90;;;;;;7949829;29;20154;-68
2021/01/30 01:13:51;;;;;;;7.13;4.47;;;-0.30;98.00;;;;;;7945831;29;20165;-68
2021/01/30 01:17:52;;;;;;;8.32;5.07;;;-0.30;98.10;;;;;;7959963;29;20865;-66
2021/01/30 01:21:54;;;;;;;8.48;4.05;;;-0.30;98.10;;;;;;7943307;29;20478;-67
2021/01/30 01:25:55;;;;;;;7.13;3.75;;;-0.40;98.10;;;;;;7947241;29;20058;-68
2021/01/30 01:29:58;;;;;;;6.88;3.85;;;-0.40;97.90;;;;;;7948777;29;20058;-68
2021/01/30 01:33:59;;;;;;;6.72;3.70;;;-0.40;97.80;;;;;;7961157;29;20089;-67
2021/01/30 01:38:01;;;;;;;6.35;3.58;;;-0.40;98.10;;;;;;7941894;29;20055;-68
2021/01/30 01:42:17;;;;;;;7.63;3.72;;;-0.30;98.10;;;;;;7958043;29;20254;-67
2021/01/30 01:46:28;;;;;;;6.68;4.05;;;-0.30;98.10;;;;;;7946505;29;20318;-67
2021/01/30 01:50:41;;;;;;;10.70;4.22;;;-0.20;98.20;;;;;;7942280;29;20081;-67
2021/01/30 01:54:43;;;;;;;7.32;3.75;;;-0.20;98.10;;;;;;7953550;29;20058;-65
2021/01/30 01:58:48;;;;;;;5.28;3.47;;;-0.30;98.20;;;;;;7957354;29;20107;-67
2021/01/30 02:02:54;;;;;;;6.90;3.78;;;-0.20;98.20;;;;;;7939805;29;20045;-68
2021/01/30 02:07:00;;;;;;;7.80;3.58;;;-0.30;98.00;;;;;;7940290;29;21779;-68
2021/01/30 02:11:01;;;;;;;;;;;-0.30;98.10;;;;;;7950909;29;20116;-68
2021/01/30 02:15:04;;;;;;;8.53;3.60;;;-0.30;98.60;;;;;;7953741;29;19933;-67
2021/01/30 02:19:14;;;;;;;7.53;3.30;;;-0.30;98.30;;;;;;7943216;29;20054;-68
2021/01/30 02:24:00;;;;;;;7.40;3.20;;;-0.30;98.30;;;;;;7949551;29;20190;-66
2021/01/30 02:28:16;;;;;;;5.35;3.17;;;-0.30;98.20;;;;;;7918450;29;20103;-68
2021/01/30 02:32:48;;;;;;;6.60;3.53;;;-0.30;98.30;;;;;;7950333;29;20137;-66
2021/01/30 02:36:54;;;;;;;;;;;-0.30;98.20;;;;;;7948119;29;20076;-69
2021/01/30 02:41:01;;;;;;;5.50;3.20;;;-0.20;98.30;;;;;;7961853;29;19947;-68
2021/01/30 02:45:03;;;;;;;7.28;3.58;;;-0.20;98.20;;;;;;7943970;29;20055;-66
2021/01/30 02:49:11;;;;;;;6.28;3.28;;;-0.20;97.90;;;;;;7940776;29;20558;-66
2021/01/30 02:53:21;;;;;;;5.78;3.35;;;-0.20;98.10;;;;;;7948919;29;20716;-67
2021/01/30 02:57:24;;;;;;;5.70;3.22;;;-0.10;98.10;;;;;;7960698;29;20058;-67
2021/01/30 03:01:26;;;;;;;7.70;3.60;;;0.80;98.20;;;;;;7965684;29;20065;-67
2021/01/30 03:05:28;;;;;;;;;;;-0.10;98.00;;;;;;7944979;29;20376;-68
2021/01/30 03:09:35;;;;;;;6.03;3.33;;;-0.10;98.00;;;;;;7942781;29;19932;-68
2021/01/30 03:13:55;;;;;;;5.03;3.10;;;-0.10;97.80;;;;;;7939656;29;20126;-68
2021/01/30 03:17:58;;;;;;;6.03;2.92;;;-0.20;97.90;;;;;;7967406;29;20375;-67
2021/01/30 03:22:08;;;;;;;6.53;3.50;;;-0.20;97.90;;;;;;7965868;29;20188;-69
2021/01/30 03:26:17;;;;;;;6.28;3.17;;;-0.20;97.80;;;;;;7945422;29;20055;-68
2021/01/30 03:30:19;;;;;;;6.22;2.83;;;-0.30;97.60;;;;;;7948455;29;20058;-67
2021/01/30 03:34:20;;;;;;;5.80;3.40;;;-0.30;97.90;;;;;;7946878;29;20149;-68
2021/01/30 03:38:22;;;;;;;8.88;3.97;;;-0.30;97.90;;;;;;7957547;29;20062;-69
2021/01/30 03:42:23;;;;;;;5.00;2.67;;;-0.30;97.20;;;;;;7946596;29;20054;-68
2021/01/30 03:46:25;;;;;;;5.07;2.72;;;-0.40;97.50;;;;;;7944115;29;20084;-69
2021/01/30 03:50:32;;;;;;;5.95;3.03;;;-0.40;97.50;;;;;;7944981;29;20107;-68
2021/01/30 03:54:35;;;;;;;6.95;2.70;;;-0.50;97.40;;;;;;7948810;29;20050;-67
2021/01/30 03:58:40;;;;;;;4.53;2.77;;;-0.40;97.80;;;;;;7937287;29;20053;-66
2021/01/30 04:02:41;;;;;;;5.68;2.80;;;-0.50;97.90;;;;;;7958475;29;20322;-67
2021/01/30 04:06:49;;;;;;;4.53;2.58;;;-0.50;97.50;;;;;;7943667;29;20058;-67
2021/01/30 04:10:51;;;;;;;4.70;2.40;;;-0.50;97.90;;;;;;7948640;29;20050;-67
2021/01/30 04:14:52;;;;;;;6.57;2.73;;;-0.50;97.80;;;;;;7947605;29;20073;-67
2021/01/30 04:18:54;;;;;;;4.60;2.40;;;-0.60;97.90;;;;;;7941596;29;20518;-66
2021/01/30 04:22:56;;;;;;;4.55;2.45;;;-0.60;97.90;;;;;;7945301;29;20069;-67
2021/01/30 04:26:58;;;;;;;6.18;2.40;;;-0.70;97.60;;;;;;7944026;29;20055;-67
2021/01/30 04:31:02;;;;;;;5.82;2.50;;;-0.80;97.60;;;;;;7945842;29;20065;-65
2021/01/30 04:35:06;;;;;;;6.00;2.50;;;-0.80;97.90;;;;;;7955888;29;20086;-67
2021/01/30 04:39:09;;;;;;;4.07;2.13;;;-0.90;97.60;;;;;;7943423;29;20062;-68
2021/01/30 04:43:16;;;;;;;4.20;2.50;;;-0.90;97.90;;;;;;7945680;29;20186;-67
2021/01/30 04:48:02;;;;;;;5.47;2.70;;;-0.90;97.90;;;;;;7941937;29;20505;-67
2021/01/30 04:52:22;;;;;;;4.32;2.15;;;-1.00;97.80;;;;;;7922324;29;20057;-67
2021/01/30 04:56:48;;;;;;;5.10;2.33;;;-1.00;97.90;;;;;;7952714;29;20520;-67
2021/01/30 05:00:55;;;;;;;5.85;2.40;;;-1.20;97.60;;;;;;7959514;29;20046;-67
2021/01/30 05:04:59;;;;;;;4.43;2.45;;;-1.20;97.90;;;;;;7939514;29;20119;-66
2021/01/30 05:09:08;;;;;;;3.75;2.20;;;-1.30;97.50;;;;;;7958982;29;20107;-67
2021/01/30 05:14:05;;;;;;;5.00;2.90;;;-1.30;97.90;;;;;;7941395;29;20575;-67
2021/01/30 05:18:29;;;;;;;4.93;2.20;;;-1.30;97.80;;;;;;7939021;29;20589;-68
2021/01/30 05:22:43;;;;;;;6.40;2.60;;;-1.40;97.80;;;;;;7949279;29;20042;-67
2021/01/30 05:27:15;;;;;;;4.97;2.28;;;-1.40;97.70;;;;;;7943631;29;20183;-67
2021/01/30 05:31:33;;;;;;;5.03;2.70;;;-1.60;97.30;;;;;;7944617;29;20129;-68
2021/01/30 05:35:58;;;;;;;4.03;2.22;;;-1.60;97.70;;;;;;7948823;29;20042;-68
2021/01/30 05:40:24;;;;;;;4.55;2.35;;;-1.60;97.80;;;;;;7943046;29;20062;-68
2021/01/30 05:44:41;;;;;;;4.95;2.33;;;-1.70;97.80;;;;;;7949345;29;20462;-68
2021/01/30 05:48:46;;;;;;;3.80;2.40;;;-1.80;97.40;;;;;;7937360;29;20046;-68
2021/01/30 05:52:48;;;;;;;7.07;2.55;;;-1.80;97.70;;;;;;7945514;29;20046;-68
2021/01/30 05:56:49;;;;;;;4.63;2.40;;;-1.80;97.70;;;;;;7963501;29;20047;-67
2021/01/30 06:01:16;;;;;;;5.38;3.47;;;-1.90;97.60;;;;;;7947878;29;20058;-67
2021/01/30 06:05:18;;;;;;;4.13;2.10;;;-2.20;97.30;;;;;;7941999;29;20058;-66
2021/01/30 06:09:34;;;;;;;6.43;2.55;;;-2.20;97.70;;;;;;7960162;29;20050;-68
2021/01/30 06:13:54;;;;;;;4.90;2.22;;;-2.20;98.00;;;;;;7944322;29;20588;-67
2021/01/30 06:17:56;;;;;;;5.40;2.67;;;-2.20;98.00;;;;;;7947899;29;20511;-68
2021/01/30 06:22:15;;;;;;;4.45;2.65;;;-2.30;97.80;;;;;;7948278;29;20050;-68
2021/01/30 06:26:20;;;;;;;5.18;2.67;;;-2.30;97.80;;;;;;7964008;29;20134;-68
2021/01/30 06:30:35;;;;;;;5.20;2.70;;;-2.40;97.20;;;;;;7959064;29;20119;-71
2021/01/30 06:34:38;;;;;;;7.72;2.75;;;-2.40;97.60;;;;;;7956646;29;20062;-71
2021/01/30 06:39:02;;;;;;;6.43;2.20;;;-2.30;98.10;;;;;;7931966;29;20528;-71
2021/01/30 06:43:15;;;;;;;5.78;2.45;;;-2.10;97.90;;;;;;7952743;29;20059;-72
2021/01/30 06:47:19;;;;;;;5.68;2.85;;;-2.00;97.50;;;;;;7948160;29;20043;-72
2021/01/30 06:51:36;;;;;;;4.78;2.90;;;-2.10;97.30;;;;;;7939647;29;20428;-71
2021/01/30 06:55:37;;;;;;;5.65;2.95;;;-2.20;97.30;;;;;;7972844;29;20730;-71
2021/01/30 06:59:59;;;;;;;6.97;2.80;;;-2.10;97.10;;;;;;7948767;29;20114;-71
2021/01/30 07:04:25;;;;;;;5.13;2.70;;;-1.40;97.50;;;;;;7950497;29;20060;-70
2021/01/30 07:08:42;;;;;;;7.35;3.45;;;-2.20;97.20;;;;;;7937385;29;20058;-70
2021/01/30 07:12:47;;;;;;;5.75;2.58;;;-2.20;97.20;;;;;;7963004;29;20054;-71
2021/01/30 07:16:54;;;;;;;6.80;3.33;;;-2.30;97.00;;;;;;7948454;29;20108;-71
2021/01/30 07:21:02;;;;;;;7.93;3.35;;;-2.30;97.30;;;;;;7942776;29;20133;-71
2021/01/30 07:25:09;;;;;;;6.57;2.90;;;-2.40;97.10;;;;;;7945915;29;20470;-70
2021/01/30 07:29:21;;;;;;;5.03;2.67;;;-2.50;96.90;;;;;;7952024;29;20226;-71
2021/01/30 07:33:30;;;;;;;;;;;-2.60;97.20;;;;;;7943906;29;20108;-71
2021/01/30 07:38:02;;;;;;;7.13;4.47;;;-2.60;97.20;;;;;;7951828;29;19931;-72
2021/01/30 07:42:30;;;;;;;6.70;3.40;;;-2.60;97.40;;;;;;7952131;29;20137;-73
2021/01/30 07:46:40;;;;;;;6.75;3.38;;;-2.50;97.40;;;;;;7924460;29;20590;-71
2021/01/30 07:50:44;;;;;;;8.13;3.63;;;-2.50;96.70;;;;;;7945216;29;20082;-72
2021/01/30 07:54:54;;;;;;;7.20;3.40;;;-2.50;97.00;;;;;;7948231;29;20054;-71
2021/01/30 07:59:01;;;;;;;6.07;3.25;;;-2.50;97.00;;;;;;7943863;29;20543;-71
2021/01/30 08:03:31;;;;;;;7.97;3.63;;;-1.00;97.40;;;;;;7938737;29;20132;-71
2021/01/30 08:07:50;;;;;;;7.53;4.07;;;-2.70;96.90;;;;;;7947153;29;20121;-72
2021/01/30 08:12:20;;;;;;;8.23;4.40;;;-2.70;97.00;;;;;;7944499;29;20047;-68
2021/01/30 08:16:26;;;;;;;6.90;4.40;;;-2.90;96.70;;;;;;7936106;29;20051;-68
2021/01/30 08:20:44;;;;;;;6.28;3.47;;;-2.90;97.10;;;;;;7958149;29;20137;-70
2021/01/30 08:24:54;;;;;;;7.30;4.50;;;-2.80;97.20;;;;;;7968798;29;20484;-68
2021/01/30 08:29:18;;;;;;;14.90;7.70;;;-2.80;97.10;;;;;;7946512;29;20104;-68
2021/01/30 08:33:21;;;;;;;9.50;6.00;;;-2.80;96.70;;;;;;7944344;29;20149;-68
2021/01/30 08:37:26;;;;;;;11.18;7.55;;;-2.80;97.00;;;;;;7935410;29;20505;-68
2021/01/30 08:41:27;;;;;;;11.02;5.93;;;-2.80;97.00;;;;;;7930345;29;20564;-68
2021/01/30 08:45:32;;;;;;;8.57;4.72;;;-2.80;97.10;;;;;;7961787;29;20115;-69
2021/01/30 08:49:34;;;;;;;8.48;5.32;;;-2.70;97.10;;;;;;7936497;29;20053;-68
2021/01/30 08:53:35;;;;;;;12.88;5.72;;;-2.70;97.00;;;;;;7945205;29;20091;-69
2021/01/30 08:57:42;;;;;;;6.97;4.18;;;-2.70;97.10;;;;;;7945343;29;20054;-69
2021/01/30 09:01:45;;;;;;;8.55;5.25;;;-2.60;96.80;;;;;;7941304;29;20445;-69
2021/01/30 09:05:47;;;;;;;6.55;4.28;;;-2.60;97.00;;;;;;7948399;29;20100;-69
2021/01/30 09:10:13;;;;;;;6.72;4.07;;;-2.50;96.80;;;;;;7940273;29;20465;-69
2021/01/30 09:14:14;;;;;;;6.70;3.97;;;-2.40;96.80;;;;;;7943670;29;20058;-69
2021/01/30 09:18:31;;;;;;;7.20;4.47;;;-2.30;96.80;;;;;;7938612;29;20089;-69
2021/01/30 09:22:41;;;;;;;10.07;4.82;;;-2.30;96.90;;;;;;7945298;29;20455;-69
2021/01/30 09:26:57;;;;;;;29.63;11.52;;;-2.30;96.90;;;;;;7936891;29;20075;-69
2021/01/30 09:31:03;;;;;;;7.28;4.07;;;-0.60;97.20;;;;;;7938502;29;20189;-69
2021/01/30 09:35:10;;;;;;;9.10;5.90;;;-2.10;96.90;;;;;;7943443;29;20564;-69
2021/01/30 09:39:33;;;;;;;8.50;5.68;;;-2.00;96.80;;;;;;7940568;29;20058;-69
2021/01/30 09:43:35;;;;;;;7.72;5.40;;;-2.00;96.60;;;;;;7916563;29;20614;-69
2021/01/30 09:47:43;;;;;;;11.60;4.72;;;-2.00;96.80;;;;;;7954333;29;20054;-69
2021/01/30 09:51:45;;;;;;;6.10;4.03;;;-1.90;96.80;;;;;;7955522;29;20597;-69
2021/01/30 09:55:55;;;;;;;6.93;3.60;;;-1.90;96.60;;;;;;7949403;29;20046;-69
2021/01/30 10:00:29;;;;;;;9.23;4.65;;;-1.80;96.80;;;;;;7938476;29;20303;-69
2021/01/30 10:04:35;;;;;;;10.85;5.03;;;-1.70;96.90;;;;;;7953967;29;20050;-69
2021/01/30 10:08:37;;;;;;;12.82;5.13;;;-1.60;96.70;;;;;;7954351;29;20794;-69
2021/01/30 10:12:38;;;;;;;8.10;4.80;;;-1.50;96.60;;;;;;7935219;29;20058;-69
2021/01/30 10:16:39;;;;;;;10.73;4.45;;;-1.50;96.50;;;;;;7941497;29;20082;-69
2021/01/30 10:21:00;;;;;;;7.95;4.72;;;-1.50;96.60;;;;;;7941883;29;20062;-69
2021/01/30 10:25:06;;;;;;;8.23;4.32;;;-1.40;96.50;;;;;;7943266;29;20066;-69
2021/01/30 10:29:11;;;;;;;8.50;5.10;;;-1.40;96.60;;;;;;7970923;29;20050;-69
2021/01/30 10:33:27;;;;;;;9.82;4.57;;;-1.40;96.60;;;;;;7945350;29;20478;-69
2021/01/30 10:37:43;;;;;;;8.80;5.00;;;-1.30;96.40;;;;;;7945484;29;20134;-69
2021/01/30 10:41:44;;;;;;;9.95;4.50;;;-1.40;96.50;;;;;;7942250;29;20042;-69
2021/01/30 10:45:56;;;;;;;11.40;5.32;;;-1.40;96.60;;;;;;7950600;29;20137;-69
2021/01/30 10:50:14;;;;;;;9.63;5.35;;;-1.30;96.50;;;;;;7945972;29;20055;-69
2021/01/30 10:54:26;;;;;;;10.02;4.57;;;-1.30;96.70;;;;;;7927354;29;20058;-69
2021/01/30 10:58:32;;;;;;;;;;;-1.30;96.60;;;;;;7944078;29;20062;-69
2021/01/30 11:02:44;;;;;;;6.25;3.97;;;-1.30;96.70;;;;;;7948226;29;20002;-69
2021/01/30 11:06:48;;;;;;;5.55;3.75;;;-1.20;96.70;;;;;;7947203;29;20053;-69
2021/01/30 11:11:10;;;;;;;8.10;4.13;;;-1.10;96.70;;;;;;7942591;29;21184;-69
2021/01/30 11:15:20;;;;;;;8.40;4.38;;;-1.10;96.70;;;;;;7942706;29;20137;-69
2021/01/30 11:19:26;;;;;;;8.82;4.55;;;-1.00;96.80;;;;;;7949125;29;20213;-69
2021/01/30 11:23:35;;;;;;;8.20;4.18;;;-0.90;96.70;;;;;;7943073;29;20062;-70
2021/01/30 11:27:45;;;;;;;6.85;4.15;;;-0.90;96.70;;;;;;7940971;29;20111;-70
2021/01/30 11:31:47;;;;;;;7.72;4.13;;;-0.80;96.80;;;;;;7954537;29;20469;-69
2021/01/30 11:35:54;;;;;;;10.07;4.82;;;-0.80;96.60;;;;;;7944913;29;20698;-70
2021/01/30 11:40:05;;;;;;;7.68;4.80;;;-0.70;96.70;;;;;;7940843;29;21254;-69
2021/01/30 11:44:08;;;;;;;7.68;4.60;;;-0.70;96.60;;;;;;7941249;29;20872;-69
2021/01/30 11:48:10;;;;;;;9.07;5.28;;;-0.60;96.70;;;;;;7945826;29;20069;-69
2021/01/30 11:52:18;;;;;;;10.25;4.97;;;-0.60;96.70;;;;;;7950118;29;20768;-69
2021/01/30 11:56:21;;;;;;;8.95;4.57;;;-0.50;96.70;;;;;;7944062;29;20061;-70
2021/01/30 12:00:22;;;;;;;7.28;4.18;;;-0.50;96.60;;;;;;7941642;29;20046;-70
2021/01/30 12:04:27;;;;;;;7.28;4.60;;;-0.40;96.60;;;;;;7921367;29;20054;-69
2021/01/30 12:08:29;;;;;;;7.80;4.40;;;-0.40;96.60;;;;;;7936402;29;20058;-70
2021/01/30 12:12:31;;;;;;;;;;;-0.30;96.60;;;;;;7935139;29;20129;-69
2021/01/30 12:16:35;;;;;;;5.15;3.30;;;-0.30;96.70;;;;;;7946318;29;19974;-70
2021/01/30 12:20:37;;;;;;;5.82;3.47;;;-0.20;96.00;;;;;;7938011;29;20054;-70
2021/01/30 12:24:40;;;;;;;5.30;3.40;;;-0.20;96.40;;;;;;7935722;29;20149;-70
2021/01/30 12:28:41;;;;;;;5.65;3.20;;;-0.20;96.50;;;;;;7954347;29;20613;-70
2021/01/30 12:32:42;;;;;;;5.25;2.92;;;1.70;97.00;;;;;;7945227;29;20073;-69
2021/01/30 12:36:47;;;;;;;6.50;3.58;;;-0.10;96.40;;;;;;7944408;29;20058;-70
2021/01/30 12:40:50;;;;;;;6.80;3.42;;;-0.10;96.40;;;;;;7932179;29;20042;-70
2021/01/30 12:44:51;;;;;;;5.25;2.92;;;-0.10;96.60;;;;;;7951859;29;20261;-70
2021/01/30 12:48:53;;;;;;;5.28;3.20;;;0.00;96.70;;;;;;7935948;29;20063;-70
2021/01/30 12:52:56;;;;;;;8.90;4.57;;;0.00;96.70;;;;;;7938161;29;20085;-69
2021/01/30 12:57:00;;;;;;;11.75;7.25;;;0.00;96.60;;;;;;7942457;29;20046;-69
2021/01/30 13:01:04;;;;;;;12.77;8.10;;;0.10;96.60;;;;;;7941073;29;20062;-70
2021/01/30 13:05:08;;;;;;;9.60;5.28;;;0.10;96.40;;;;;;7969326;29;21423;-69
2021/01/30 13:09:10;;;;;;;8.18;5.05;;;0.20;96.50;;;;;;7941196;29;20069;-70
2021/01/30 13:13:11;;;;;;;7.00;4.23;;;0.30;96.40;;;;;;7937288;29;20055;-70
2021/01/30 13:17:16;;;;;;;6.13;3.97;;;0.30;96.50;;;;;;7940347;29;20141;-70
2021/01/30 13:21:18;;;;;;;7.65;4.43;;;0.40;96.30;;;;;;7948557;29;20055;-70
2021/01/30 13:25:19;;;;;;;4.75;2.97;;;0.30;96.30;;;;;;7928448;29;20049;-70
2021/01/30 13:29:24;;;;;;;6.18;2.63;;;0.30;96.60;;;;;;7944657;29;20528;-69
2021/01/30 13:33:25;;;;;;;4.22;2.25;;;0.40;95.70;;;;;;7951666;29;20809;-69
2021/01/30 13:37:27;;;;;;;4.88;2.25;;;0.30;96.30;;;;;;7941531;29;20139;-69
2021/01/30 13:41:28;;;;;;;3.72;2.30;;;0.30;95.20;;;;;;7934117;29;20057;-70
2021/01/30 13:45:30;;;;;;;3.08;1.75;;;0.30;96.20;;;;;;7941345;29;20708;-70
2021/01/30 13:49:32;;;;;;;;;;;0.30;96.60;;;;;;7939038;29;20054;-68
2021/01/30 13:53:33;;;;;;;4.75;2.42;;;0.20;95.10;;;;;;7944028;29;19972;-69
2021/01/30 13:57:35;;;;;;;5.20;3.10;;;0.30;96.20;;;;;;7948853;29;20137;-70
2021/01/30 14:01:38;;;;;;;4.18;2.40;;;0.30;96.50;;;;;;7942970;29;20060;-70
2021/01/30 14:05:40;;;;;;;4.20;2.60;;;0.20;96.50;;;;;;7961325;29;20425;-70
2021/01/30 14:09:41;;;;;;;4.37;2.80;;;0.20;96.50;;;;;;7958288;29;20083;-70
2021/01/30 14:13:42;;;;;;;4.97;2.47;;;0.20;96.10;;;;;;7938487;29;20478;-70
2021/01/30 14:17:44;;;;;;;4.00;2.38;;;0.10;96.60;;;;;;7952401;29;20054;-70
2021/01/30 14:21:46;;;;;;;6.95;2.83;;;0.20;96.80;;;;;;7944184;29;20054;-70
2021/01/30 14:25:48;;;;;;;4.32;2.67;;;-0.20;96.50;;;;;;7925500;29;20484;-70
2021/01/30 14:29:50;;;;;;;4.10;2.47;;;0.10;96.70;;;;;;7944848;29;20520;-70
2021/01/30 14:33:52;;;;;;;6.13;2.67;;;0.10;96.30;;;;;;7953547;29;20062;-70
2021/01/30 14:37:53;;;;;;;5.53;2.77;;;0.10;96.80;;;;;;7934473;29;20067;-70
2021/01/30 14:41:55;;;;;;;4.57;2.83;;;0.00;96.40;;;;;;7935652;29;20065;-70
2021/01/30 14:45:58;;;;;;;5.13;3.13;;;0.00;96.60;;;;;;7933367;29;20058;-70
2021/01/30 14:50:00;;;;;;;6.68;3.78;;;0.00;96.70;;;;;;7944356;29;20055;-70
2021/01/30 14:54:01;;;;;;;6.20;3.70;;;-0.10;96.20;;;;;;7950231;29;21373;-70
2021/01/30 14:58:03;;;;;;;5.65;3.10;;;-0.10;96.60;;;;;;7943915;29;20058;-70
2021/01/30 15:02:04;;;;;;;5.80;3.53;;;-0.10;96.50;;;;;;7947695;29;20050;-70
2021/01/30 15:06:06;;;;;;;5.70;3.35;;;-0.10;95.60;;;;;;7947298;29;20058;-70
2021/01/30 15:10:12;;;;;;;6.82;3.53;;;-0.20;96.30;;;;;;7937800;29;20097;-70
2021/01/30 15:14:14;;;;;;;7.18;3.60;;;-0.20;96.60;;;;;;7954491;29;20153;-70
2021/01/30 15:18:19;;;;;;;6.55;4.03;;;-0.20;96.70;;;;;;7940552;29;20292;-70
2021/01/30 15:22:20;;;;;;;8.23;4.78;;;-0.20;96.40;;;;;;7943520;29;20494;-70
2021/01/30 15:26:22;;;;;;;7.40;4.53;;;-0.20;96.60;;;;;;7966710;29;20050;-71
2021/01/30 15:30:24;;;;;;;6.93;4.65;;;1.40;97.10;;;;;;7944935;29;20439;-70
2021/01/30 15:34:26;;;;;;;14.25;5.35;;;-0.30;96.20;;;;;;7928142;29;20081;-70
2021/01/30 15:38:30;;;;;;;12.60;5.60;;;-0.30;96.60;;;;;;7943990;29;20630;-69
2021/01/30 15:42:31;;;;;;;;;;;-0.30;96.60;;;;;;7939750;29;20605;-70
2021/01/30 15:46:33;;;;;;;10.35;4.63;;;-0.40;95.80;;;;;;7950119;29;19936;-70
2021/01/30 15:50:40;;;;;;;10.38;4.25;;;-0.40;96.30;;;;;;7931026;29;20056;-69
2021/01/30 15:54:42;;;;;;;7.93;4.25;;;-0.40;96.30;;;;;;7947220;29;20758;-70
2021/01/30 15:58:43;;;;;;;9.80;5.03;;;-0.40;96.40;;;;;;7938858;29;20054;-71
2021/01/30 16:02:45;;;;;;;11.82;5.28;;;-0.40;96.80;;;;;;7955684;29;20054;-70
2021/01/30 16:06:46;;;;;;;9.60;5.03;;;-0.50;96.70;;;;;;7944827;29;20337;-70
2021/01/30 16:10:48;;;;;;;10.48;5.68;;;-0.50;96.70;;;;;;7918116;29;20536;-69
2021/01/30 16:14:50;;;;;;;13.73;6.00;;;-0.60;96.70;;;;;;7946692;29;20058;-69
2021/01/30 16:18:51;;;;;;;8.90;5.15;;;-0.70;96.30;;;;;;7940234;29;20066;-69
2021/01/30 16:22:53;;;;;;;11.40;6.88;;;-0.70;96.80;;;;;;7951875;29;20507;-69
2021/01/30 16:26:59;;;;;;;8.60;5.68;;;-0.80;96.90;;;;;;7942390;29;20060;-70
2021/01/30 16:31:01;;;;;;;10.27;6.57;;;-0.80;96.90;;;;;;7942201;29;20106;-69
2021/01/30 16:35:06;;;;;;;13.38;7.78;;;-0.90;96.90;;;;;;7932322;29;20066;-70
2021/01/30 16:39:07;;;;;;;14.00;6.45;;;-0.90;96.50;;;;;;7956112;29;20062;-69
2021/01/30 16:43:09;;;;;;;10.27;6.13;;;-0.90;96.90;;;;;;7939841;29;20129;-69
2021/01/30 16:47:11;;;;;;;11.57;6.93;;;-1.00;96.90;;;;;;7960862;29;20133;-70
2021/01/30 16:51:13;;;;;;;12.48;7.22;;;-1.00;96.90;;;;;;7941145;29;20054;-70
2021/01/30 16:55:15;;;;;;;15.45;9.63;;;-1.00;97.10;;;;;;7927200;29;20055;-70
2021/01/30 16:59:17;;;;;;;17.17;8.10;;;-1.00;96.90;;;;;;7948793;29;20058;-70
2021/01/30 17:03:19;;;;;;;13.82;6.93;;;-1.20;96.50;;;;;;7943168;29;20058;-70
2021/01/30 17:07:20;;;;;;;12.30;6.72;;;-2.40;96.50;;;;;;7937425;29;20099;-68
2021/01/30 17:11:22;;;;;;;13.10;7.43;;;-1.20;96.60;;;;;;7955662;29;20328;-68
2021/01/30 17:15:27;;;;;;;13.70;7.10;;;-1.30;96.90;;;;;;7946664;29;20081;-69
2021/01/30 17:19:29;;;;;;;13.52;6.93;;;-1.30;96.80;;;;;;7934480;29;20058;-68
2021/01/30 17:23:30;;;;;;;13.70;6.53;;;-1.30;96.90;;;;;;7943682;29;20333;-69
2021/01/30 17:27:32;;;;;;;13.05;6.03;;;-1.30;96.90;;;;;;7943474;29;20471;-68
2021/01/30 17:31:35;;;;;;;17.42;7.90;;;-1.30;96.80;;;;;;7940170;29;20631;-68
2021/01/30 17:35:37;;;;;;;19.90;8.95;;;-1.40;96.50;;;;;;7957381;29;20058;-68
2021/01/30 17:39:39;;;;;;;19.10;8.52;;;-1.40;96.50;;;;;;7947056;29;20066;-68
2021/01/30 17:43:41;;;;;;;14.13;7.25;;;-1.40;96.80;;;;;;7941875;29;20093;-68
2021/01/30 17:47:42;;;;;;;13.52;6.07;;;-1.50;96.70;;;;;;7953369;29;20586;-68
2021/01/30 17:51:44;;;;;;;10.80;6.05;;;-1.50;96.80;;;;;;7955186;29;20480;-68
2021/01/30 17:55:45;;;;;;;8.77;5.25;;;-1.50;96.50;;;;;;7961215;29;20061;-68
2021/01/30 17:59:47;;;;;;;9.07;5.53;;;-1.60;96.80;;;;;;7946802;29;20111;-68
2021/01/30 18:03:48;;;;;;;10.60;5.68;;;-1.60;96.80;;;;;;7949961;29;20054;-68
2021/01/30 18:07:50;;;;;;;10.55;6.18;;;-1.60;96.80;;;;;;7949462;29;20063;-68
2021/01/30 18:11:52;;;;;;;;;;;-1.60;96.80;;;;;;7949942;29;20880;-68
2021/01/30 18:15:56;;;;;;;13.35;7.20;;;-1.60;96.50;;;;;;7932376;29;19972;-69
2021/01/30 18:20:00;;;;;;;15.93;8.43;;;-1.60;96.50;;;;;;7943946;29;20077;-68
2021/01/30 18:24:02;;;;;;;15.32;8.60;;;-1.70;96.40;;;;;;7949581;29;20406;-68
2021/01/30 18:28:05;;;;;;;12.85;7.82;;;-1.70;96.70;;;;;;7957558;29;20051;-68
2021/01/30 18:32:06;;;;;;;10.02;5.95;;;-1.60;96.70;;;;;;7945968;29;20120;-68
2021/01/30 18:36:08;;;;;;;12.95;5.93;;;-1.70;96.60;;;;;;7949574;29;20361;-68
2021/01/30 18:40:09;;;;;;;10.23;5.38;;;-1.70;96.50;;;;;;7941910;29;20560;-68
2021/01/30 18:44:11;;;;;;;10.88;5.40;;;-1.70;96.50;;;;;;7945730;29;20065;-68
2021/01/30 18:48:12;;;;;;;11.32;6.05;;;-1.70;96.30;;;;;;7924619;29;21494;-67
2021/01/30 18:52:17;;;;;;;14.93;7.43;;;-0.50;96.90;;;;;;7966909;29;20058;-68
2021/01/30 18:56:21;;;;;;;16.05;8.07;;;-1.80;96.50;;;;;;7914347;29;20055;-67
2021/01/30 19:00:26;;;;;;;23.98;10.00;;;-1.80;96.50;;;;;;7941222;29;20058;-68
2021/01/30 19:04:29;;;;;;;19.00;8.50;;;-1.80;96.60;;;;;;7948935;29;20070;-67
2021/01/30 19:08:31;;;;;;;11.40;6.63;;;-1.90;96.40;;;;;;7947829;29;20066;-67
2021/01/30 19:12:32;;;;;;;11.35;5.65;;;-2.00;96.60;;;;;;7935348;29;20403;-68
2021/01/30 19:16:34;;;;;;;10.10;5.43;;;-2.10;96.40;;;;;;7948209;29;20412;-67
2021/01/30 19:20:38;;;;;;;10.75;5.65;;;-2.10;96.60;;;;;;7954293;29;20042;-65
2021/01/30 19:24:40;;;;;;;11.85;6.30;;;-2.10;96.60;;;;;;7942261;29;20042;-67
2021/01/30 19:28:44;;;;;;;13.15;7.25;;;-2.10;96.70;;;;;;7943316;29;20768;-67
2021/01/30 19:32:48;;;;;;;10.93;6.68;;;-2.10;96.50;;;;;;7947859;29;20047;-67
2021/01/30 19:36:49;;;;;;;10.98;6.20;;;-2.20;96.70;;;;;;7942071;29;21752;-67
2021/01/30 19:40:51;;;;;;;9.88;5.25;;;-2.20;96.40;;;;;;7950302;29;20825;-66
2021/01/30 19:44:58;;;;;;;9.68;5.15;;;-2.20;96.40;;;;;;7938872;29;20141;-69
2021/01/30 19:48:59;;;;;;;9.15;5.28;;;-2.20;96.20;;;;;;7933633;29;20108;-68
2021/01/30 19:53:02;;;;;;;10.43;5.22;;;-2.20;96.40;;;;;;7938464;29;20050;-67
2021/01/30 19:57:04;;;;;;;9.13;5.45;;;-2.20;96.20;;;;;;7967352;29;20530;-68
2021/01/30 20:01:07;;;;;;;11.38;6.65;;;-2.20;96.20;;;;;;7937551;29;20078;-68
2021/01/30 20:05:10;;;;;;;10.73;6.30;;;-2.20;96.20;;;;;;7940600;29;20115;-68
2021/01/30 20:09:12;;;;;;;10.20;5.38;;;-2.30;96.40;;;;;;7938175;29;20058;-68
2021/01/30 20:13:14;;;;;;;9.52;5.05;;;-2.30;96.20;;;;;;7931366;29;20455;-67
2021/01/30 20:17:18;;;;;;;;;;;-2.30;96.30;;;;;;7951873;29;20062;-68
2021/01/30 20:21:22;;;;;;;11.30;4.53;;;-2.40;96.40;;;;;;7930893;29;20273;-68
2021/01/30 20:25:27;;;;;;;10.95;4.63;;;-2.40;96.40;;;;;;7936860;29;20057;-68
2021/01/30 20:29:29;;;;;;;11.52;5.43;;;-2.50;96.40;;;;;;7940778;29;20134;-67
2021/01/30 20:33:39;;;;;;;10.80;5.20;;;-2.50;96.40;;;;;;7952280;29;20118;-67
2021/01/30 20:37:41;;;;;;;8.63;4.72;;;-2.50;96.30;;;;;;7943652;29;20058;-65
2021/01/30 20:41:42;;;;;;;8.32;4.60;;;-2.50;96.50;;;;;;7939982;29;20054;-67
2021/01/30 20:45:44;;;;;;;9.90;5.60;;;-2.50;96.20;;;;;;7942087;29;20127;-68
2021/01/30 20:49:45;;;;;;;10.57;4.90;;;-2.50;96.40;;;;;;7941267;29;20066;-66
2021/01/30 20:53:49;;;;;;;11.32;4.97;;;-2.50;96.50;;;;;;7955078;29;20062;-67
2021/01/30 20:57:54;;;;;;;11.13;5.15;;;-2.50;96.50;;;;;;7943073;29;20050;-67
2021/01/30 21:01:55;;;;;;;9.18;4.85;;;-2.50;96.60;;;;;;7941819;29;20441;-68
2021/01/30 21:06:00;;;;;;;9.32;4.82;;;-2.50;96.40;;;;;;7942428;29;20061;-68
2021/01/30 21:10:03;;;;;;;8.52;4.75;;;-2.50;96.50;;;;;;7948376;29;20061;-68
2021/01/30 21:14:07;;;;;;;12.95;6.40;;;-2.50;96.50;;;;;;7944980;29;20054;-71
2021/01/30 21:18:09;;;;;;;16.65;7.28;;;-2.50;96.70;;;;;;7953884;29;20962;-71
2021/01/30 21:22:10;;;;;;;10.02;5.22;;;-2.50;96.50;;;;;;7946612;29;20054;-70